sensor_id;sensor_type;location;lat;lon;timestamp;P1;durP1;ratioP1;P2;durP2;ratioP2
64678;SDS011;51094;53.864;27.676;2023-01-25T00:00:42;4.25;;;4.25;;
64678;SDS011;51094;53.864;27.676;2023-01-25T00:03:09;4.30;;;4.30;;
64678;SDS011;51094;53.864;27.676;2023-01-25T00:05:36;4.22;;;4.22;;
64678;SDS011;51094;53.864;27.676;2023-01-25T00:08:03;4.55;;;4.45;;
64678;SDS011;51094;53.864;27.676;2023-01-25T00:10:30;4.47;;;4.38;;
64678;SDS011;51094;53.864;27.676;2023-01-25T00:12:57;4.15;;;4.07;;
64678;SDS011;51094;53.864;27.676;2023-01-25T00:15:23;4.50;;;4.40;;
64678;SDS011;51094;53.864;27.676;2023-01-25T00:17:50;4.38;;;4.28;;
64678;SDS011;51094;53.864;27.676;2023-01-25T00:20:17;3.95;;;3.95;;
64678;SDS011;51094;53.864;27.676;2023-01-25T00:22:44;3.90;;;3.90;;
64678;SDS011;51094;53.864;27.676;2023-01-25T00:25:11;3.97;;;3.90;;
64678;SDS011;51094;53.864;27.676;2023-01-25T00:27:38;3.88;;;3.88;;
64678;SDS011;51094;53.864;27.676;2023-01-25T00:30:05;4.00;;;3.90;;
64678;SDS011;51094;53.864;27.676;2023-01-25T00:32:40;4.15;;;4.15;;
64678;SDS011;51094;53.864;27.676;2023-01-25T00:35:31;4.30;;;4.20;;
64678;SDS011;51094;53.864;27.676;2023-01-25T00:37:59;4.00;;;4.00;;
64678;SDS011;51094;53.864;27.676;2023-01-25T00:40:28;4.53;;;4.43;;
64678;SDS011;51094;53.864;27.676;2023-01-25T00:42:57;4.32;;;4.22;;
64678;SDS011;51094;53.864;27.676;2023-01-25T00:45:26;4.55;;;4.45;;
64678;SDS011;51094;53.864;27.676;2023-01-25T00:47:54;4.10;;;4.00;;
64678;SDS011;51094;53.864;27.676;2023-01-25T00:50:21;4.43;;;4.32;;
64678;SDS011;51094;53.864;27.676;2023-01-25T00:52:48;4.45;;;4.40;;
64678;SDS011;51094;53.864;27.676;2023-01-25T00:55:15;4.18;;;4.07;;
64678;SDS011;51094;53.864;27.676;2023-01-25T00:57:42;4.32;;;4.30;;
64678;SDS011;51094;53.864;27.676;2023-01-25T01:00:09;4.43;;;4.32;;
64678;SDS011;51094;53.864;27.676;2023-01-25T01:02:37;4.47;;;4.38;;
64678;SDS011;51094;53.864;27.676;2023-01-25T01:05:04;4.38;;;4.28;;
64678;SDS011;51094;53.864;27.676;2023-01-25T01:07:31;4.70;;;4.60;;
64678;SDS011;51094;53.864;27.676;2023-01-25T01:09:58;4.40;;;4.30;;
64678;SDS011;51094;53.864;27.676;2023-01-25T01:12:25;4.70;;;4.60;;
64678;SDS011;51094;53.864;27.676;2023-01-25T01:14:52;4.35;;;4.30;;
64678;SDS011;51094;53.864;27.676;2023-01-25T01:17:19;4.65;;;4.55;;
64678;SDS011;51094;53.864;27.676;2023-01-25T01:19:46;4.70;;;4.60;;
64678;SDS011;51094;53.864;27.676;2023-01-25T01:22:13;4.78;;;4.68;;
64678;SDS011;51094;53.864;27.676;2023-01-25T01:24:40;4.40;;;4.30;;
64678;SDS011;51094;53.864;27.676;2023-01-25T01:27:07;4.55;;;4.45;;
64678;SDS011;51094;53.864;27.676;2023-01-25T01:29:34;4.63;;;4.53;;
64678;SDS011;51094;53.864;27.676;2023-01-25T01:32:01;4.43;;;4.32;;
64678;SDS011;51094;53.864;27.676;2023-01-25T01:34:28;4.53;;;4.43;;
64678;SDS011;51094;53.864;27.676;2023-01-25T01:36:55;4.78;;;4.68;;
64678;SDS011;51094;53.864;27.676;2023-01-25T01:39:22;4.78;;;4.68;;
64678;SDS011;51094;53.864;27.676;2023-01-25T01:41:49;5.03;;;4.93;;
64678;SDS011;51094;53.864;27.676;2023-01-25T01:44:17;4.57;;;4.47;;
64678;SDS011;51094;53.864;27.676;2023-01-25T01:46:54;4.80;;;4.70;;
64678;SDS011;51094;53.864;27.676;2023-01-25T01:49:27;4.78;;;4.68;;
64678;SDS011;51094;53.864;27.676;2023-01-25T01:52:05;4.60;;;4.50;;
64678;SDS011;51094;53.864;27.676;2023-01-25T01:54:40;4.78;;;4.68;;
64678;SDS011;51094;53.864;27.676;2023-01-25T01:57:17;4.60;;;4.50;;
64678;SDS011;51094;53.864;27.676;2023-01-25T01:59:49;4.15;;;4.15;;
64678;SDS011;51094;53.864;27.676;2023-01-25T02:02:19;4.18;;;4.15;;
64678;SDS011;51094;53.864;27.676;2023-01-25T02:04:49;4.70;;;4.60;;
64678;SDS011;51094;53.864;27.676;2023-01-25T02:07:19;4.70;;;4.60;;
64678;SDS011;51094;53.864;27.676;2023-01-25T02:09:50;4.80;;;4.70;;
64678;SDS011;51094;53.864;27.676;2023-01-25T02:12:17;5.07;;;4.97;;
64678;SDS011;51094;53.864;27.676;2023-01-25T02:14:48;4.45;;;4.45;;
64678;SDS011;51094;53.864;27.676;2023-01-25T02:17:23;4.80;;;4.70;;
64678;SDS011;51094;53.864;27.676;2023-01-25T02:22:29;4.60;;;4.50;;
64678;SDS011;51094;53.864;27.676;2023-01-25T02:25:09;3.92;;;3.92;;
64678;SDS011;51094;53.864;27.676;2023-01-25T02:27:49;4.00;;;4.00;;
64678;SDS011;51094;53.864;27.676;2023-01-25T02:30:20;4.30;;;4.20;;
64678;SDS011;51094;53.864;27.676;2023-01-25T02:32:49;4.40;;;4.30;;
64678;SDS011;51094;53.864;27.676;2023-01-25T02:35:17;4.60;;;4.50;;
64678;SDS011;51094;53.864;27.676;2023-01-25T02:37:50;4.25;;;4.25;;
64678;SDS011;51094;53.864;27.676;2023-01-25T02:40:17;4.22;;;4.20;;
64678;SDS011;51094;53.864;27.676;2023-01-25T02:42:45;4.15;;;4.15;;
64678;SDS011;51094;53.864;27.676;2023-01-25T02:45:14;3.80;;;3.80;;
64678;SDS011;51094;53.864;27.676;2023-01-25T02:47:44;4.05;;;4.05;;
64678;SDS011;51094;53.864;27.676;2023-01-25T02:50:11;4.25;;;4.15;;
64678;SDS011;51094;53.864;27.676;2023-01-25T02:52:41;4.10;;;4.00;;
64678;SDS011;51094;53.864;27.676;2023-01-25T02:55:08;3.90;;;3.90;;
64678;SDS011;51094;53.864;27.676;2023-01-25T02:57:37;4.32;;;4.22;;
64678;SDS011;51094;53.864;27.676;2023-01-25T03:00:05;3.80;;;3.80;;
64678;SDS011;51094;53.864;27.676;2023-01-25T03:02:32;4.32;;;4.22;;
64678;SDS011;51094;53.864;27.676;2023-01-25T03:05:00;4.45;;;4.35;;
64678;SDS011;51094;53.864;27.676;2023-01-25T03:07:27;4.32;;;4.22;;
64678;SDS011;51094;53.864;27.676;2023-01-25T03:09:54;4.15;;;4.05;;
64678;SDS011;51094;53.864;27.676;2023-01-25T03:12:21;4.50;;;4.40;;
64678;SDS011;51094;53.864;27.676;2023-01-25T03:14:48;4.28;;;4.18;;
64678;SDS011;51094;53.864;27.676;2023-01-25T03:17:17;4.22;;;4.13;;
64678;SDS011;51094;53.864;27.676;2023-01-25T03:19:44;4.35;;;4.25;;
64678;SDS011;51094;53.864;27.676;2023-01-25T03:22:11;4.07;;;3.97;;
64678;SDS011;51094;53.864;27.676;2023-01-25T03:24:39;4.57;;;4.47;;
64678;SDS011;51094;53.864;27.676;2023-01-25T03:27:06;4.63;;;4.53;;
64678;SDS011;51094;53.864;27.676;2023-01-25T03:29:45;4.30;;;4.20;;
64678;SDS011;51094;53.864;27.676;2023-01-25T03:32:16;3.90;;;3.80;;
64678;SDS011;51094;53.864;27.676;2023-01-25T03:34:43;4.35;;;4.35;;
64678;SDS011;51094;53.864;27.676;2023-01-25T03:37:10;3.80;;;3.80;;
64678;SDS011;51094;53.864;27.676;2023-01-25T03:39:39;4.00;;;3.90;;
64678;SDS011;51094;53.864;27.676;2023-01-25T03:42:06;4.03;;;4.03;;
64678;SDS011;51094;53.864;27.676;2023-01-25T03:44:33;4.07;;;4.07;;
64678;SDS011;51094;53.864;27.676;2023-01-25T03:47:00;4.00;;;4.00;;
64678;SDS011;51094;53.864;27.676;2023-01-25T03:49:28;3.90;;;3.90;;
64678;SDS011;51094;53.864;27.676;2023-01-25T03:51:56;3.08;;;3.08;;
64678;SDS011;51094;53.864;27.676;2023-01-25T03:54:32;3.95;;;3.85;;
64678;SDS011;51094;53.864;27.676;2023-01-25T03:56:59;3.83;;;3.83;;
64678;SDS011;51094;53.864;27.676;2023-01-25T03:59:27;3.60;;;3.60;;
64678;SDS011;51094;53.864;27.676;2023-01-25T04:01:54;3.83;;;3.72;;
64678;SDS011;51094;53.864;27.676;2023-01-25T04:04:21;3.90;;;3.90;;
64678;SDS011;51094;53.864;27.676;2023-01-25T04:06:49;3.85;;;3.85;;
64678;SDS011;51094;53.864;27.676;2023-01-25T04:09:16;3.60;;;3.60;;
64678;SDS011;51094;53.864;27.676;2023-01-25T04:11:48;4.05;;;3.95;;
64678;SDS011;51094;53.864;27.676;2023-01-25T04:14:16;3.53;;;3.53;;
64678;SDS011;51094;53.864;27.676;2023-01-25T04:17:01;3.67;;;3.67;;
64678;SDS011;51094;53.864;27.676;2023-01-25T04:19:41;3.38;;;3.38;;
64678;SDS011;51094;53.864;27.676;2023-01-25T04:24:41;3.28;;;3.28;;
64678;SDS011;51094;53.864;27.676;2023-01-25T04:27:09;3.53;;;3.53;;
64678;SDS011;51094;53.864;27.676;2023-01-25T04:29:48;3.00;;;3.00;;
64678;SDS011;51094;53.864;27.676;2023-01-25T04:32:18;3.45;;;3.45;;
64678;SDS011;51094;53.864;27.676;2023-01-25T04:34:45;4.80;;;4.70;;
64678;SDS011;51094;53.864;27.676;2023-01-25T04:37:16;3.85;;;3.85;;
64678;SDS011;51094;53.864;27.676;2023-01-25T04:39:50;4.10;;;4.00;;
64678;SDS011;51094;53.864;27.676;2023-01-25T04:42:18;4.15;;;4.05;;
64678;SDS011;51094;53.864;27.676;2023-01-25T04:47:15;3.53;;;3.53;;
64678;SDS011;51094;53.864;27.676;2023-01-25T04:49:42;3.88;;;3.80;;
64678;SDS011;51094;53.864;27.676;2023-01-25T04:52:09;3.97;;;3.90;;
64678;SDS011;51094;53.864;27.676;2023-01-25T04:54:36;4.00;;;4.00;;
64678;SDS011;51094;53.864;27.676;2023-01-25T04:57:03;4.43;;;4.32;;
64678;SDS011;51094;53.864;27.676;2023-01-25T04:59:31;5.15;;;5.05;;
64678;SDS011;51094;53.864;27.676;2023-01-25T05:01:58;4.72;;;4.63;;
64678;SDS011;51094;53.864;27.676;2023-01-25T05:04:26;4.97;;;4.88;;
64678;SDS011;51094;53.864;27.676;2023-01-25T05:06:53;5.60;;;5.50;;
64678;SDS011;51094;53.864;27.676;2023-01-25T05:09:20;5.82;;;5.63;;
64678;SDS011;51094;53.864;27.676;2023-01-25T05:11:47;6.00;;;5.90;;
64678;SDS011;51094;53.864;27.676;2023-01-25T05:14:20;4.95;;;4.85;;
64678;SDS011;51094;53.864;27.676;2023-01-25T05:16:48;4.82;;;4.72;;
64678;SDS011;51094;53.864;27.676;2023-01-25T05:19:16;5.90;;;5.80;;
64678;SDS011;51094;53.864;27.676;2023-01-25T05:21:54;6.50;;;6.30;;
64678;SDS011;51094;53.864;27.676;2023-01-25T05:24:40;5.78;;;5.68;;
64678;SDS011;51094;53.864;27.676;2023-01-25T05:27:10;5.57;;;5.47;;
64678;SDS011;51094;53.864;27.676;2023-01-25T05:30:05;4.80;;;4.70;;
64678;SDS011;51094;53.864;27.676;2023-01-25T05:32:41;4.72;;;4.63;;
64678;SDS011;51094;53.864;27.676;2023-01-25T05:35:08;5.10;;;5.00;;
64678;SDS011;51094;53.864;27.676;2023-01-25T05:37:37;4.95;;;4.85;;
64678;SDS011;51094;53.864;27.676;2023-01-25T05:40:07;5.30;;;5.20;;
64678;SDS011;51094;53.864;27.676;2023-01-25T05:42:37;5.18;;;5.07;;
64678;SDS011;51094;53.864;27.676;2023-01-25T05:45:09;5.65;;;5.55;;
64678;SDS011;51094;53.864;27.676;2023-01-25T05:47:38;5.47;;;5.38;;
64678;SDS011;51094;53.864;27.676;2023-01-25T05:50:05;5.65;;;5.55;;
64678;SDS011;51094;53.864;27.676;2023-01-25T05:52:48;5.90;;;5.80;;
64678;SDS011;51094;53.864;27.676;2023-01-25T05:55:16;6.35;;;6.25;;
64678;SDS011;51094;53.864;27.676;2023-01-25T05:57:43;6.68;;;6.55;;
64678;SDS011;51094;53.864;27.676;2023-01-25T06:00:10;8.55;;;8.35;;
64678;SDS011;51094;53.864;27.676;2023-01-25T06:05:12;8.10;;;7.90;;
64678;SDS011;51094;53.864;27.676;2023-01-25T06:07:39;8.05;;;7.85;;
64678;SDS011;51094;53.864;27.676;2023-01-25T06:10:06;8.00;;;7.80;;
64678;SDS011;51094;53.864;27.676;2023-01-25T06:12:34;7.90;;;7.78;;
64678;SDS011;51094;53.864;27.676;2023-01-25T06:15:02;7.20;;;7.10;;
64678;SDS011;51094;53.864;27.676;2023-01-25T06:17:29;7.05;;;6.95;;
64678;SDS011;51094;53.864;27.676;2023-01-25T06:20:14;6.65;;;6.55;;
64678;SDS011;51094;53.864;27.676;2023-01-25T06:23:17;6.10;;;6.00;;
64678;SDS011;51094;53.864;27.676;2023-01-25T06:25:44;5.85;;;5.75;;
64678;SDS011;51094;53.864;27.676;2023-01-25T06:28:10;6.30;;;6.10;;
64678;SDS011;51094;53.864;27.676;2023-01-25T06:30:37;8.23;;;8.02;;
64678;SDS011;51094;53.864;27.676;2023-01-25T06:33:04;7.00;;;6.85;;
64678;SDS011;51094;53.864;27.676;2023-01-25T06:35:31;6.88;;;6.78;;
64678;SDS011;51094;53.864;27.676;2023-01-25T06:37:59;9.02;;;8.82;;
64678;SDS011;51094;53.864;27.676;2023-01-25T06:40:26;8.45;;;8.25;;
64678;SDS011;51094;53.864;27.676;2023-01-25T06:42:53;8.35;;;8.15;;
64678;SDS011;51094;53.864;27.676;2023-01-25T06:45:20;8.43;;;8.23;;
64678;SDS011;51094;53.864;27.676;2023-01-25T06:47:47;7.75;;;7.55;;
64678;SDS011;51094;53.864;27.676;2023-01-25T06:50:15;7.82;;;7.63;;
64678;SDS011;51094;53.864;27.676;2023-01-25T06:52:42;6.90;;;6.75;;
64678;SDS011;51094;53.864;27.676;2023-01-25T06:55:17;7.05;;;6.95;;
64678;SDS011;51094;53.864;27.676;2023-01-25T06:57:44;6.18;;;6.07;;
64678;SDS011;51094;53.864;27.676;2023-01-25T07:00:11;7.25;;;7.05;;
64678;SDS011;51094;53.864;27.676;2023-01-25T07:02:38;7.57;;;7.38;;
64678;SDS011;51094;53.864;27.676;2023-01-25T07:05:05;8.10;;;7.90;;
64678;SDS011;51094;53.864;27.676;2023-01-25T07:07:33;7.97;;;7.78;;
64678;SDS011;51094;53.864;27.676;2023-01-25T07:10:00;7.25;;;7.05;;
64678;SDS011;51094;53.864;27.676;2023-01-25T07:12:27;7.95;;;7.72;;
64678;SDS011;51094;53.864;27.676;2023-01-25T07:14:55;8.00;;;7.80;;
64678;SDS011;51094;53.864;27.676;2023-01-25T07:17:22;7.97;;;7.78;;
64678;SDS011;51094;53.864;27.676;2023-01-25T07:19:49;7.95;;;7.75;;
64678;SDS011;51094;53.864;27.676;2023-01-25T07:22:16;11.73;;;11.43;;
64678;SDS011;51094;53.864;27.676;2023-01-25T07:24:43;15.57;;;15.18;;
64678;SDS011;51094;53.864;27.676;2023-01-25T07:27:15;10.40;;;10.10;;
64678;SDS011;51094;53.864;27.676;2023-01-25T07:29:46;9.55;;;9.35;;
64678;SDS011;51094;53.864;27.676;2023-01-25T07:32:13;8.93;;;8.73;;
64678;SDS011;51094;53.864;27.676;2023-01-25T07:34:40;9.10;;;8.80;;
64678;SDS011;51094;53.864;27.676;2023-01-25T07:37:06;8.80;;;8.50;;
64678;SDS011;51094;53.864;27.676;2023-01-25T07:39:34;8.88;;;8.68;;
64678;SDS011;51094;53.864;27.676;2023-01-25T07:42:01;7.95;;;7.75;;
64678;SDS011;51094;53.864;27.676;2023-01-25T07:44:30;9.57;;;9.30;;
64678;SDS011;51094;53.864;27.676;2023-01-25T07:47:07;7.28;;;7.07;;
64678;SDS011;51094;53.864;27.676;2023-01-25T07:49:34;6.95;;;6.85;;
64678;SDS011;51094;53.864;27.676;2023-01-25T07:52:01;7.03;;;6.82;;
64678;SDS011;51094;53.864;27.676;2023-01-25T07:54:28;7.45;;;7.28;;
64678;SDS011;51094;53.864;27.676;2023-01-25T07:56:55;7.13;;;7.00;;
64678;SDS011;51094;53.864;27.676;2023-01-25T07:59:23;7.20;;;7.00;;
64678;SDS011;51094;53.864;27.676;2023-01-25T08:01:50;7.00;;;6.88;;
64678;SDS011;51094;53.864;27.676;2023-01-25T08:04:17;7.05;;;6.88;;
64678;SDS011;51094;53.864;27.676;2023-01-25T08:06:44;7.50;;;7.30;;
64678;SDS011;51094;53.864;27.676;2023-01-25T08:09:12;8.30;;;8.10;;
64678;SDS011;51094;53.864;27.676;2023-01-25T08:11:45;10.10;;;9.77;;
64678;SDS011;51094;53.864;27.676;2023-01-25T08:14:12;8.90;;;8.70;;
64678;SDS011;51094;53.864;27.676;2023-01-25T08:16:39;8.00;;;7.80;;
64678;SDS011;51094;53.864;27.676;2023-01-25T08:19:08;9.38;;;9.18;;
64678;SDS011;51094;53.864;27.676;2023-01-25T08:21:36;9.33;;;9.13;;
64678;SDS011;51094;53.864;27.676;2023-01-25T08:24:04;8.00;;;7.80;;
64678;SDS011;51094;53.864;27.676;2023-01-25T08:26:33;7.20;;;7.00;;
64678;SDS011;51094;53.864;27.676;2023-01-25T08:29:01;7.53;;;7.32;;
64678;SDS011;51094;53.864;27.676;2023-01-25T08:31:29;7.38;;;7.18;;
64678;SDS011;51094;53.864;27.676;2023-01-25T08:33:58;7.30;;;7.10;;
64678;SDS011;51094;53.864;27.676;2023-01-25T08:36:26;7.18;;;6.97;;
64678;SDS011;51094;53.864;27.676;2023-01-25T08:38:57;7.15;;;6.95;;
64678;SDS011;51094;53.864;27.676;2023-01-25T08:41:26;7.72;;;7.53;;
64678;SDS011;51094;53.864;27.676;2023-01-25T08:43:54;7.28;;;7.07;;
64678;SDS011;51094;53.864;27.676;2023-01-25T08:46:22;7.47;;;7.28;;
64678;SDS011;51094;53.864;27.676;2023-01-25T08:48:54;8.00;;;7.80;;
64678;SDS011;51094;53.864;27.676;2023-01-25T08:51:21;7.05;;;6.90;;
64678;SDS011;51094;53.864;27.676;2023-01-25T08:53:49;6.47;;;6.38;;
64678;SDS011;51094;53.864;27.676;2023-01-25T08:56:17;7.60;;;7.45;;
64678;SDS011;51094;53.864;27.676;2023-01-25T08:58:45;6.75;;;6.65;;
64678;SDS011;51094;53.864;27.676;2023-01-25T09:01:14;6.90;;;6.70;;
64678;SDS011;51094;53.864;27.676;2023-01-25T09:03:48;8.32;;;8.13;;
64678;SDS011;51094;53.864;27.676;2023-01-25T09:06:16;7.65;;;7.55;;
64678;SDS011;51094;53.864;27.676;2023-01-25T09:08:45;7.55;;;7.35;;
64678;SDS011;51094;53.864;27.676;2023-01-25T09:11:16;7.28;;;7.18;;
64678;SDS011;51094;53.864;27.676;2023-01-25T09:13:45;7.40;;;7.20;;
64678;SDS011;51094;53.864;27.676;2023-01-25T09:16:17;7.10;;;6.90;;
64678;SDS011;51094;53.864;27.676;2023-01-25T09:18:48;7.13;;;6.93;;
64678;SDS011;51094;53.864;27.676;2023-01-25T09:21:16;7.18;;;7.00;;
64678;SDS011;51094;53.864;27.676;2023-01-25T09:23:44;6.68;;;6.57;;
64678;SDS011;51094;53.864;27.676;2023-01-25T09:26:32;6.68;;;6.57;;
64678;SDS011;51094;53.864;27.676;2023-01-25T09:29:00;7.35;;;7.15;;
64678;SDS011;51094;53.864;27.676;2023-01-25T09:31:26;7.32;;;7.20;;
64678;SDS011;51094;53.864;27.676;2023-01-25T09:33:58;7.07;;;6.97;;
64678;SDS011;51094;53.864;27.676;2023-01-25T09:36:25;7.22;;;7.13;;
64678;SDS011;51094;53.864;27.676;2023-01-25T09:38:52;7.03;;;6.82;;
64678;SDS011;51094;53.864;27.676;2023-01-25T09:46:44;7.28;;;7.07;;
64678;SDS011;51094;53.864;27.676;2023-01-25T09:54:35;6.60;;;6.40;;
64678;SDS011;51094;53.864;27.676;2023-01-25T09:57:46;6.93;;;6.72;;
64678;SDS011;51094;53.864;27.676;2023-01-25T10:05:18;7.82;;;7.63;;
64678;SDS011;51094;53.864;27.676;2023-01-25T10:10:21;8.45;;;8.18;;
64678;SDS011;51094;53.864;27.676;2023-01-25T10:12:55;6.38;;;6.18;;
64678;SDS011;51094;53.864;27.676;2023-01-25T10:15:23;7.50;;;7.30;;
64678;SDS011;51094;53.864;27.676;2023-01-25T10:18:03;6.50;;;6.32;;
64678;SDS011;51094;53.864;27.676;2023-01-25T10:25:58;7.78;;;7.57;;
64678;SDS011;51094;53.864;27.676;2023-01-25T10:34:15;5.15;;;5.05;;
64678;SDS011;51094;53.864;27.676;2023-01-25T10:36:43;5.65;;;5.55;;
64678;SDS011;51094;53.864;27.676;2023-01-25T10:39:14;5.72;;;5.63;;
64678;SDS011;51094;53.864;27.676;2023-01-25T10:41:45;5.75;;;5.65;;
64678;SDS011;51094;53.864;27.676;2023-01-25T10:44:15;6.70;;;6.57;;
64678;SDS011;51094;53.864;27.676;2023-01-25T10:46:58;6.10;;;5.90;;
64678;SDS011;51094;53.864;27.676;2023-01-25T10:52:13;5.63;;;5.53;;
64678;SDS011;51094;53.864;27.676;2023-01-25T10:54:41;5.30;;;5.20;;
64678;SDS011;51094;53.864;27.676;2023-01-25T10:57:11;5.70;;;5.60;;
64678;SDS011;51094;53.864;27.676;2023-01-25T10:59:47;5.43;;;5.22;;
64678;SDS011;51094;53.864;27.676;2023-01-25T11:07:44;4.70;;;4.60;;
64678;SDS011;51094;53.864;27.676;2023-01-25T11:10:29;4.88;;;4.78;;
64678;SDS011;51094;53.864;27.676;2023-01-25T11:15:39;5.53;;;5.43;;
64678;SDS011;51094;53.864;27.676;2023-01-25T11:18:11;5.93;;;5.82;;
64678;SDS011;51094;53.864;27.676;2023-01-25T11:20:45;6.47;;;6.38;;
64678;SDS011;51094;53.864;27.676;2023-01-25T11:23:22;6.00;;;5.90;;
64678;SDS011;51094;53.864;27.676;2023-01-25T11:25:52;5.38;;;5.28;;
64678;SDS011;51094;53.864;27.676;2023-01-25T11:28:20;5.43;;;5.32;;
64678;SDS011;51094;53.864;27.676;2023-01-25T11:30:49;5.60;;;5.50;;
64678;SDS011;51094;53.864;27.676;2023-01-25T11:33:19;4.93;;;4.82;;
64678;SDS011;51094;53.864;27.676;2023-01-25T11:38:23;5.40;;;5.30;;
64678;SDS011;51094;53.864;27.676;2023-01-25T11:40:56;6.03;;;5.90;;
64678;SDS011;51094;53.864;27.676;2023-01-25T11:46:14;5.55;;;5.45;;
64678;SDS011;51094;53.864;27.676;2023-01-25T11:49:02;5.60;;;5.50;;
64678;SDS011;51094;53.864;27.676;2023-01-25T11:52:24;5.07;;;4.97;;
64678;SDS011;51094;53.864;27.676;2023-01-25T12:00:04;5.28;;;5.18;;
64678;SDS011;51094;53.864;27.676;2023-01-25T12:08:29;5.93;;;5.80;;
64678;SDS011;51094;53.864;27.676;2023-01-25T12:13:44;5.22;;;5.13;;
64678;SDS011;51094;53.864;27.676;2023-01-25T12:19:37;4.43;;;4.32;;
64678;SDS011;51094;53.864;27.676;2023-01-25T12:24:36;5.00;;;4.90;;
64678;SDS011;51094;53.864;27.676;2023-01-25T12:30:12;4.60;;;4.50;;
64678;SDS011;51094;53.864;27.676;2023-01-25T12:35:38;4.97;;;4.88;;
64678;SDS011;51094;53.864;27.676;2023-01-25T12:38:18;5.10;;;5.00;;
64678;SDS011;51094;53.864;27.676;2023-01-25T12:40:52;4.80;;;4.70;;
64678;SDS011;51094;53.864;27.676;2023-01-25T12:43:26;5.38;;;5.28;;
64678;SDS011;51094;53.864;27.676;2023-01-25T12:45:58;5.13;;;5.03;;
64678;SDS011;51094;53.864;27.676;2023-01-25T12:48:31;5.20;;;5.10;;
64678;SDS011;51094;53.864;27.676;2023-01-25T12:51:03;5.35;;;5.25;;
64678;SDS011;51094;53.864;27.676;2023-01-25T12:53:32;5.05;;;4.95;;
64678;SDS011;51094;53.864;27.676;2023-01-25T12:56:07;5.15;;;5.05;;
64678;SDS011;51094;53.864;27.676;2023-01-25T12:58:50;4.82;;;4.72;;
64678;SDS011;51094;53.864;27.676;2023-01-25T13:06:46;5.10;;;5.00;;
64678;SDS011;51094;53.864;27.676;2023-01-25T13:09:52;5.30;;;5.20;;
64678;SDS011;51094;53.864;27.676;2023-01-25T13:12:27;5.20;;;5.10;;
64678;SDS011;51094;53.864;27.676;2023-01-25T13:14:54;4.90;;;4.80;;
64678;SDS011;51094;53.864;27.676;2023-01-25T13:17:23;4.95;;;4.85;;
64678;SDS011;51094;53.864;27.676;2023-01-25T13:23:08;4.53;;;4.43;;
64678;SDS011;51094;53.864;27.676;2023-01-25T13:28:57;5.10;;;5.00;;
64678;SDS011;51094;53.864;27.676;2023-01-25T13:39:52;4.20;;;4.10;;
64678;SDS011;51094;53.864;27.676;2023-01-25T13:42:32;4.10;;;4.00;;
64678;SDS011;51094;53.864;27.676;2023-01-25T13:47:41;3.88;;;3.78;;
64678;SDS011;51094;53.864;27.676;2023-01-25T13:55:22;4.10;;;4.00;;
64678;SDS011;51094;53.864;27.676;2023-01-25T13:57:49;4.70;;;4.60;;
64678;SDS011;51094;53.864;27.676;2023-01-25T14:00:17;4.38;;;4.28;;
64678;SDS011;51094;53.864;27.676;2023-01-25T14:02:45;4.35;;;4.25;;
64678;SDS011;51094;53.864;27.676;2023-01-25T14:05:21;4.10;;;4.10;;
64678;SDS011;51094;53.864;27.676;2023-01-25T14:07:51;4.45;;;4.35;;
64678;SDS011;51094;53.864;27.676;2023-01-25T14:10:24;4.20;;;4.17;;
64678;SDS011;51094;53.864;27.676;2023-01-25T14:12:56;4.10;;;4.00;;
64678;SDS011;51094;53.864;27.676;2023-01-25T14:15:29;3.75;;;3.75;;
64678;SDS011;51094;53.864;27.676;2023-01-25T14:20:30;4.00;;;3.90;;
64678;SDS011;51094;53.864;27.676;2023-01-25T14:22:57;4.78;;;4.68;;
64678;SDS011;51094;53.864;27.676;2023-01-25T14:25:24;4.78;;;4.68;;
64678;SDS011;51094;53.864;27.676;2023-01-25T14:27:56;4.40;;;4.30;;
64678;SDS011;51094;53.864;27.676;2023-01-25T14:30:26;3.90;;;3.80;;
64678;SDS011;51094;53.864;27.676;2023-01-25T14:32:57;3.85;;;3.85;;
64678;SDS011;51094;53.864;27.676;2023-01-25T14:41:46;4.15;;;4.05;;
64678;SDS011;51094;53.864;27.676;2023-01-25T14:43:54;4.05;;;3.95;;
64678;SDS011;51094;53.864;27.676;2023-01-25T14:49:05;4.65;;;4.55;;
64678;SDS011;51094;53.864;27.676;2023-01-25T14:51:32;4.50;;;4.40;;
64678;SDS011;51094;53.864;27.676;2023-01-25T14:54:04;4.45;;;4.35;;
64678;SDS011;51094;53.864;27.676;2023-01-25T14:56:43;4.10;;;4.00;;
64678;SDS011;51094;53.864;27.676;2023-01-25T15:02:24;4.50;;;4.40;;
64678;SDS011;51094;53.864;27.676;2023-01-25T15:05:17;4.53;;;4.43;;
64678;SDS011;51094;53.864;27.676;2023-01-25T15:10:18;4.43;;;4.32;;
64678;SDS011;51094;53.864;27.676;2023-01-25T15:12:56;4.75;;;4.65;;
64678;SDS011;51094;53.864;27.676;2023-01-25T15:21:08;4.82;;;4.72;;
64678;SDS011;51094;53.864;27.676;2023-01-25T15:23:38;4.93;;;4.82;;
64678;SDS011;51094;53.864;27.676;2023-01-25T15:26:13;5.68;;;5.57;;
64678;SDS011;51094;53.864;27.676;2023-01-25T15:28:44;4.75;;;4.65;;
64678;SDS011;51094;53.864;27.676;2023-01-25T15:31:15;4.43;;;4.32;;
64678;SDS011;51094;53.864;27.676;2023-01-25T15:33:47;4.88;;;4.78;;
64678;SDS011;51094;53.864;27.676;2023-01-25T15:36:14;4.82;;;4.72;;
64678;SDS011;51094;53.864;27.676;2023-01-25T15:38:43;4.75;;;4.65;;
64678;SDS011;51094;53.864;27.676;2023-01-25T15:41:11;4.32;;;4.22;;
64678;SDS011;51094;53.864;27.676;2023-01-25T15:43:39;4.53;;;4.43;;
64678;SDS011;51094;53.864;27.676;2023-01-25T15:46:10;4.70;;;4.60;;
64678;SDS011;51094;53.864;27.676;2023-01-25T15:48:41;4.70;;;4.60;;
64678;SDS011;51094;53.864;27.676;2023-01-25T15:51:10;4.72;;;4.63;;
64678;SDS011;51094;53.864;27.676;2023-01-25T15:53:38;4.88;;;4.78;;
64678;SDS011;51094;53.864;27.676;2023-01-25T15:56:05;4.95;;;4.85;;
64678;SDS011;51094;53.864;27.676;2023-01-25T15:58:39;4.82;;;4.72;;
64678;SDS011;51094;53.864;27.676;2023-01-25T16:01:08;6.00;;;5.90;;
64678;SDS011;51094;53.864;27.676;2023-01-25T16:03:35;4.93;;;4.82;;
64678;SDS011;51094;53.864;27.676;2023-01-25T16:06:29;5.05;;;4.95;;
64678;SDS011;51094;53.864;27.676;2023-01-25T16:08:54;5.03;;;4.93;;
64678;SDS011;51094;53.864;27.676;2023-01-25T16:11:21;5.07;;;4.97;;
64678;SDS011;51094;53.864;27.676;2023-01-25T16:13:48;5.20;;;5.10;;
64678;SDS011;51094;53.864;27.676;2023-01-25T16:16:19;5.20;;;5.10;;
64678;SDS011;51094;53.864;27.676;2023-01-25T16:18:48;5.10;;;5.00;;
64678;SDS011;51094;53.864;27.676;2023-01-25T16:21:15;5.00;;;4.90;;
64678;SDS011;51094;53.864;27.676;2023-01-25T16:23:42;4.93;;;4.82;;
64678;SDS011;51094;53.864;27.676;2023-01-25T16:26:16;5.38;;;5.28;;
64678;SDS011;51094;53.864;27.676;2023-01-25T16:28:48;4.68;;;4.57;;
64678;SDS011;51094;53.864;27.676;2023-01-25T16:31:15;4.70;;;4.60;;
64678;SDS011;51094;53.864;27.676;2023-01-25T16:33:57;5.00;;;4.90;;
64678;SDS011;51094;53.864;27.676;2023-01-25T16:36:25;4.50;;;4.40;;
64678;SDS011;51094;53.864;27.676;2023-01-25T16:38:52;4.60;;;4.50;;
64678;SDS011;51094;53.864;27.676;2023-01-25T16:41:19;4.90;;;4.80;;
64678;SDS011;51094;53.864;27.676;2023-01-25T16:43:46;4.90;;;4.80;;
64678;SDS011;51094;53.864;27.676;2023-01-25T16:46:18;4.55;;;4.45;;
64678;SDS011;51094;53.864;27.676;2023-01-25T16:48:47;4.70;;;4.60;;
64678;SDS011;51094;53.864;27.676;2023-01-25T16:51:17;4.50;;;4.40;;
64678;SDS011;51094;53.864;27.676;2023-01-25T16:53:47;5.25;;;5.15;;
64678;SDS011;51094;53.864;27.676;2023-01-25T16:56:16;5.53;;;5.43;;
64678;SDS011;51094;53.864;27.676;2023-01-25T16:58:48;4.80;;;4.70;;
64678;SDS011;51094;53.864;27.676;2023-01-25T17:01:19;5.47;;;5.38;;
64678;SDS011;51094;53.864;27.676;2023-01-25T17:03:48;5.40;;;5.30;;